createdAt,value
2022-09-14T00:01:40.243Z,2.70
2022-09-14T00:04:12.878Z,2.93
2022-09-14T00:06:41.211Z,3.23
2022-09-14T00:09:17.415Z,2.83
2022-09-14T00:11:44.707Z,3.10
2022-09-14T00:14:12.370Z,2.70
2022-09-14T00:16:42.751Z,2.80
2022-09-14T00:19:23.187Z,2.93
2022-09-14T00:21:54.239Z,2.97
2022-09-14T00:24:22.820Z,2.60
2022-09-14T00:26:50.839Z,2.80
2022-09-14T00:29:18.464Z,2.70
2022-09-14T00:31:45.765Z,2.50
2022-09-14T00:34:16.365Z,2.43
2022-09-14T00:36:47.664Z,2.60
2022-09-14T00:39:16.530Z,2.80
2022-09-14T00:41:47.145Z,2.50
2022-09-14T00:44:14.139Z,2.90
2022-09-14T00:46:48.364Z,3.00
2022-09-14T00:49:23.361Z,2.70
2022-09-14T00:52:24.296Z,2.80
2022-09-14T00:55:04.164Z,2.50
2022-09-14T00:57:40.330Z,2.60
2022-09-14T01:00:11.724Z,2.47
2022-09-14T01:02:40.014Z,3.30
2022-09-14T01:05:11.090Z,2.50
2022-09-14T01:08:00.397Z,2.33
2022-09-14T01:10:59.123Z,2.73
2022-09-14T01:13:48.554Z,2.70
2022-09-14T01:16:28.327Z,2.87
2022-09-14T01:19:10.784Z,2.50
2022-09-14T01:21:42.490Z,2.50
2022-09-14T01:24:23.541Z,3.07
2022-09-14T01:27:29.137Z,2.47
2022-09-14T01:30:09.639Z,2.53
2022-09-14T01:32:51.149Z,2.40
2022-09-14T01:35:41.146Z,2.37
2022-09-14T01:38:35.922Z,2.67
2022-09-14T01:41:09.368Z,2.53
2022-09-14T01:43:54.237Z,2.60
2022-09-14T01:46:30.068Z,2.67
2022-09-14T01:49:23.826Z,2.40
2022-09-14T01:51:58.782Z,2.33
2022-09-14T01:55:01.380Z,2.77
2022-09-14T01:58:04.376Z,2.40
2022-09-14T02:00:32.643Z,2.40
2022-09-14T02:03:11.727Z,2.30
2022-09-14T02:06:10.360Z,2.60
2022-09-14T02:08:38.078Z,2.40
2022-09-14T02:11:05.486Z,2.40
2022-09-14T02:13:33.283Z,2.50
2022-09-14T02:16:00.451Z,2.40
2022-09-14T02:18:28.224Z,2.40
2022-09-14T02:21:27.468Z,2.67
2022-09-14T02:23:55.210Z,2.60
2022-09-14T02:26:24.437Z,2.50
2022-09-14T02:28:56.112Z,2.57
2022-09-14T02:31:44.808Z,2.40
2022-09-14T02:34:23.813Z,2.53
2022-09-14T02:37:08.924Z,2.60
2022-09-14T02:39:56.351Z,2.50
2022-09-14T02:42:41.496Z,2.60
2022-09-14T02:45:39.310Z,2.47
2022-09-14T02:48:27.207Z,2.40
2022-09-14T02:51:08.077Z,2.37
2022-09-14T02:54:11.499Z,2.47
2022-09-14T02:56:38.848Z,2.00
2022-09-14T02:59:06.389Z,2.10
2022-09-14T03:01:34.003Z,2.20
2022-09-14T03:04:01.247Z,2.50
2022-09-14T03:06:28.436Z,2.50
2022-09-14T03:08:55.508Z,2.00
2022-09-14T03:11:22.702Z,2.30
2022-09-14T03:13:49.896Z,2.50
2022-09-14T03:16:18.476Z,2.13
2022-09-14T03:18:45.682Z,2.20
2022-09-14T03:21:16.809Z,2.17
2022-09-14T03:23:55.200Z,2.10
2022-09-14T03:26:25.153Z,2.30
2022-09-14T03:28:58.804Z,2.40
2022-09-14T03:31:27.782Z,2.40
2022-09-14T03:33:58.343Z,2.20
2022-09-14T03:36:29.136Z,2.10
2022-09-14T03:38:59.180Z,2.00
2022-09-14T03:41:26.806Z,2.07
2022-09-14T03:43:54.155Z,2.10
2022-09-14T03:46:24.397Z,1.93
2022-09-14T03:48:52.027Z,2.30
2022-09-14T03:51:19.774Z,2.20
2022-09-14T03:53:47.546Z,2.20
2022-09-14T03:56:19.369Z,2.40
2022-09-14T03:58:48.467Z,2.40
2022-09-14T04:01:19.523Z,2.37
2022-09-14T04:03:47.694Z,2.57
2022-09-14T04:06:16.943Z,2.57
2022-09-14T04:08:46.312Z,2.70
2022-09-14T04:11:21.013Z,2.60
2022-09-14T04:13:49.185Z,2.53
2022-09-14T04:16:18.574Z,2.70
2022-09-14T04:18:45.875Z,2.40
2022-09-14T04:21:20.035Z,2.40
2022-09-14T04:26:35.271Z,2.30
2022-09-14T04:29:02.411Z,2.17
2022-09-14T04:31:29.846Z,2.10
2022-09-14T04:33:57.537Z,2.10
2022-09-14T04:36:31.140Z,2.17
2022-09-14T04:39:01.913Z,2.03
2022-09-14T04:41:31.254Z,2.20
2022-09-14T04:43:59.864Z,2.17
2022-09-14T04:46:35.145Z,2.03
2022-09-14T04:49:02.850Z,2.30
2022-09-14T04:51:32.709Z,1.87
2022-09-14T04:54:01.975Z,2.10
2022-09-14T04:56:33.615Z,2.20
2022-09-14T04:59:04.489Z,1.97
2022-09-14T05:01:37.499Z,2.00
2022-09-14T05:04:06.461Z,2.13
2022-09-14T05:06:38.568Z,2.00
2022-09-14T05:09:13.275Z,2.13
2022-09-14T05:11:41.658Z,2.37
2022-09-14T05:14:13.323Z,2.00
2022-09-14T05:16:43.103Z,2.40
2022-09-14T05:19:15.439Z,2.37
2022-09-14T05:21:42.694Z,2.27
2022-09-14T05:24:17.833Z,2.40
2022-09-14T05:26:46.175Z,2.00
2022-09-14T05:29:18.941Z,2.43
2022-09-14T05:31:47.383Z,2.30
2022-09-14T05:34:15.115Z,2.53
2022-09-14T05:36:42.546Z,2.20
2022-09-14T05:39:10.605Z,2.40
2022-09-14T05:41:38.283Z,2.43
2022-09-14T05:44:06.512Z,2.37
2022-09-14T05:46:34.517Z,2.07
2022-09-14T05:49:01.830Z,2.50
2022-09-14T05:51:29.808Z,1.67
2022-09-14T05:53:59.026Z,2.30
2022-09-14T05:56:29.857Z,2.20
2022-09-14T05:58:58.382Z,2.23
2022-09-14T06:01:29.602Z,2.40
2022-09-14T06:04:00.577Z,2.60
2022-09-14T06:06:28.720Z,2.17
2022-09-14T06:08:56.624Z,2.30
2022-09-14T06:11:29.990Z,2.50
2022-09-14T06:13:57.884Z,2.50
2022-09-14T06:16:28.084Z,2.37
2022-09-14T06:19:51.471Z,2.57
2022-09-14T06:22:18.598Z,3.00
2022-09-14T06:24:45.846Z,2.63
2022-09-14T06:27:13.329Z,2.53
2022-09-14T06:29:40.499Z,2.63
2022-09-14T06:32:08.081Z,2.80
2022-09-14T06:34:37.150Z,3.20
2022-09-14T06:37:07.120Z,2.53
2022-09-14T06:39:34.373Z,2.90
2022-09-14T06:42:21.553Z,2.60
2022-09-14T06:44:48.755Z,2.83
2022-09-14T06:47:15.896Z,2.67
2022-09-14T06:49:43.098Z,2.53
2022-09-14T06:52:10.360Z,2.70
2022-09-14T06:54:37.464Z,2.60
2022-09-14T06:57:06.634Z,2.90
2022-09-14T06:59:33.878Z,2.30
2022-09-14T07:02:01.048Z,2.40
2022-09-14T07:04:28.267Z,2.40
2022-09-14T07:06:55.330Z,2.50
2022-09-14T07:09:22.739Z,2.50
2022-09-14T07:11:49.986Z,2.53
2022-09-14T07:14:17.485Z,2.60
2022-09-14T07:16:44.718Z,2.63
2022-09-14T07:19:14.895Z,2.60
2022-09-14T07:21:43.065Z,2.30
2022-09-14T07:24:12.975Z,2.70
2022-09-14T07:26:42.641Z,2.20
2022-09-14T07:29:20.195Z,2.67
2022-09-14T07:31:51.344Z,2.60
2022-09-14T07:34:19.053Z,2.20
2022-09-14T07:36:46.955Z,2.93
2022-09-14T07:39:19.724Z,2.47
2022-09-14T07:41:46.940Z,2.33
2022-09-14T07:44:17.474Z,2.60
2022-09-14T07:46:46.579Z,2.70
2022-09-14T07:49:15.999Z,2.80
2022-09-14T07:51:43.387Z,2.50
2022-09-14T07:54:15.241Z,2.73
2022-09-14T07:56:43.629Z,2.40
2022-09-14T07:59:48.338Z,2.67
2022-09-14T08:02:15.410Z,2.90
2022-09-14T08:04:43.574Z,2.60
2022-09-14T08:07:10.905Z,2.53
2022-09-14T08:09:39.739Z,3.03
2022-09-14T08:12:06.989Z,2.90
2022-09-14T08:14:34.285Z,3.00
2022-09-14T08:17:01.528Z,3.03
2022-09-14T08:19:28.957Z,3.33
2022-09-14T08:21:56.128Z,2.90
2022-09-14T08:24:23.346Z,2.57
2022-09-14T08:26:50.768Z,2.40
2022-09-14T08:29:20.074Z,2.70
2022-09-14T08:31:48.762Z,2.50
2022-09-14T08:34:17.526Z,2.33
2022-09-14T08:36:46.857Z,2.13
2022-09-14T08:39:16.194Z,2.47
2022-09-14T08:41:54.197Z,2.40
2022-09-14T08:45:09.437Z,2.63
2022-09-14T08:47:39.113Z,2.60
2022-09-14T08:50:22.056Z,3.10
2022-09-14T08:52:55.237Z,2.80
2022-09-14T08:55:50.751Z,3.10
2022-09-14T08:58:47.518Z,2.67
2022-09-14T09:01:37.148Z,2.67
2022-09-14T09:04:57.350Z,2.60
2022-09-14T09:07:51.121Z,2.70
2022-09-14T09:10:19.525Z,2.43
2022-09-14T09:12:54.004Z,2.50
2022-09-14T09:15:37.232Z,2.97
2022-09-14T09:18:16.280Z,2.77
2022-09-14T09:20:55.049Z,3.00
2022-09-14T09:23:27.574Z,3.00
2022-09-14T09:26:30.592Z,3.17
2022-09-14T09:29:01.509Z,3.03
2022-09-14T09:31:39.806Z,3.47
2022-09-14T09:34:16.431Z,3.40
2022-09-14T09:36:49.034Z,4.00
2022-09-14T09:39:17.716Z,4.43
2022-09-14T09:42:16.035Z,4.23
2022-09-14T09:45:03.144Z,4.20
2022-09-14T09:47:33.293Z,4.13
2022-09-14T09:50:06.126Z,4.43
2022-09-14T09:52:34.870Z,4.37
2022-09-14T09:55:08.876Z,5.47
2022-09-14T09:57:37.470Z,6.00
2022-09-14T10:00:26.071Z,6.03
2022-09-14T10:02:55.142Z,5.40
2022-09-14T10:05:32.761Z,6.53
2022-09-14T10:08:02.795Z,5.87
2022-09-14T10:10:36.003Z,5.80
2022-09-14T10:13:07.204Z,6.10
2022-09-14T10:15:38.812Z,6.37
2022-09-14T10:18:12.140Z,6.37
2022-09-14T10:20:59.486Z,7.00
2022-09-14T10:23:31.034Z,7.13
2022-09-14T10:26:13.550Z,7.77
2022-09-14T10:29:21.227Z,7.00
2022-09-14T10:31:50.425Z,7.23
2022-09-14T10:34:23.844Z,7.10
2022-09-14T10:37:12.519Z,7.53
2022-09-14T10:40:04.551Z,6.97
2022-09-14T10:43:03.962Z,6.43
2022-09-14T10:45:41.330Z,6.67
2022-09-14T10:48:31.768Z,7.73
2022-09-14T10:51:22.561Z,7.67
2022-09-14T10:54:36.146Z,8.40
2022-09-14T10:57:37.091Z,9.37
2022-09-14T11:00:19.134Z,9.10
2022-09-14T11:03:36.757Z,9.00
2022-09-14T11:06:30.705Z,9.27
2022-09-14T11:09:20.603Z,8.30
2022-09-14T11:12:12.425Z,7.70
2022-09-14T11:14:57.425Z,7.13
2022-09-14T11:17:34.330Z,7.40
2022-09-14T11:20:33.487Z,7.10
2022-09-14T11:23:20.973Z,6.70
2022-09-14T11:26:17.097Z,4.70
2022-09-14T11:28:58.009Z,4.43
2022-09-14T11:32:10.109Z,4.30
2022-09-14T11:35:11.816Z,3.70
2022-09-14T11:37:55.751Z,3.50
2022-09-14T11:40:49.266Z,3.23
2022-09-14T11:43:50.580Z,2.30
2022-09-14T11:46:31.924Z,2.37
2022-09-14T11:49:19.029Z,1.87
2022-09-14T11:52:05.279Z,1.50
2022-09-14T11:54:32.493Z,1.90
2022-09-14T11:57:03.613Z,1.53
2022-09-14T11:59:39.594Z,1.20
2022-09-14T12:02:30.359Z,1.60
2022-09-14T12:05:06.694Z,1.43
2022-09-14T12:08:03.876Z,1.70
2022-09-14T12:10:31.156Z,1.70
2022-09-14T12:13:07.369Z,1.57
2022-09-14T12:15:41.226Z,1.97
2022-09-14T12:18:08.237Z,1.77
2022-09-14T12:20:43.551Z,1.70
2022-09-14T12:23:30.751Z,2.10
2022-09-14T12:26:18.915Z,2.00
2022-09-14T12:28:53.392Z,2.10
2022-09-14T12:31:47.622Z,2.00
2022-09-14T12:34:27.193Z,2.33
2022-09-14T12:36:54.905Z,2.40
2022-09-14T12:39:29.301Z,1.97
2022-09-14T12:41:58.899Z,2.20
2022-09-14T12:44:32.051Z,2.10
2022-09-14T12:47:25.283Z,1.77
2022-09-14T12:50:20.999Z,2.03
2022-09-14T12:53:24.165Z,1.90
2022-09-14T12:56:04.249Z,2.50
2022-09-14T12:58:56.750Z,1.73
2022-09-14T13:01:38.190Z,1.80
2022-09-14T13:04:32.759Z,1.50
2022-09-14T13:07:06.050Z,1.50
2022-09-14T13:09:34.464Z,1.80
2022-09-14T13:12:06.810Z,1.50
2022-09-14T13:14:58.436Z,1.50
2022-09-14T13:17:25.792Z,1.53
2022-09-14T13:20:05.542Z,1.60
2022-09-14T13:22:33.988Z,1.60
2022-09-14T13:25:01.665Z,1.77
2022-09-14T13:27:38.606Z,1.60
2022-09-14T13:30:26.481Z,1.50
2022-09-14T13:32:57.852Z,1.60
2022-09-14T13:35:55.488Z,1.60
2022-09-14T13:38:29.275Z,2.10
2022-09-14T13:41:06.991Z,2.30
2022-09-14T13:43:35.489Z,2.33
2022-09-14T13:46:07.634Z,2.47
2022-09-14T13:48:40.169Z,2.27
2022-09-14T13:51:09.082Z,2.60
2022-09-14T13:53:58.443Z,2.70
2022-09-14T13:56:33.749Z,2.73
2022-09-14T13:59:12.457Z,2.70
2022-09-14T14:01:54.218Z,2.97
2022-09-14T14:04:36.599Z,3.07
2022-09-14T14:07:16.491Z,3.13
2022-09-14T14:09:51.373Z,3.27
2022-09-14T14:12:37.754Z,3.70
2022-09-14T14:15:27.227Z,4.13
2022-09-14T14:17:55.272Z,3.27
2022-09-14T14:20:38.414Z,3.67
2022-09-14T14:23:11.510Z,3.77
2022-09-14T14:25:54.252Z,4.10
2022-09-14T14:28:41.665Z,3.97
2022-09-14T14:31:21.293Z,4.40
2022-09-14T14:33:51.923Z,4.17
2022-09-14T14:36:19.775Z,4.20
2022-09-14T14:38:48.320Z,4.10
2022-09-14T14:41:21.251Z,4.77
2022-09-14T14:43:50.946Z,4.80
2022-09-14T14:46:18.912Z,4.63
2022-09-14T14:48:46.052Z,4.60
2022-09-14T14:51:15.308Z,4.93
2022-09-14T14:53:43.233Z,5.13
2022-09-14T14:56:13.890Z,4.47
2022-09-14T14:58:46.059Z,4.93
2022-09-14T15:01:13.839Z,4.70
2022-09-14T15:03:41.097Z,4.93
2022-09-14T15:06:26.425Z,4.20
2022-09-14T15:08:57.526Z,4.20
2022-09-14T15:11:27.203Z,4.07
2022-09-14T15:13:54.460Z,4.10
2022-09-14T15:16:21.870Z,4.33
2022-09-14T15:18:49.094Z,4.30
2022-09-14T15:21:16.249Z,4.00
2022-09-14T15:23:43.353Z,3.93
2022-09-14T15:26:10.591Z,3.93
2022-09-14T15:28:38.810Z,3.77
2022-09-14T15:31:07.968Z,3.00
2022-09-14T15:33:35.481Z,3.80
2022-09-14T15:36:03.542Z,3.60
2022-09-14T15:38:30.937Z,3.40
2022-09-14T15:40:58.061Z,3.63
2022-09-14T15:43:25.351Z,3.30
2022-09-14T15:45:52.609Z,3.20
2022-09-14T15:48:20.166Z,3.70
2022-09-14T15:50:48.889Z,3.20
2022-09-14T15:53:18.513Z,3.23
2022-09-14T15:55:46.306Z,3.20
2022-09-14T15:58:13.738Z,3.13
2022-09-14T16:00:45.384Z,3.10
2022-09-14T16:03:13.099Z,2.70
2022-09-14T16:05:40.825Z,3.37
2022-09-14T16:08:08.346Z,2.90
2022-09-14T16:10:35.573Z,3.07
2022-09-14T16:13:02.696Z,3.33
2022-09-14T16:15:29.862Z,3.20
2022-09-14T16:17:57.075Z,2.93
2022-09-14T16:20:24.194Z,3.43
2022-09-14T16:22:51.911Z,3.40
2022-09-14T16:25:19.238Z,3.97
2022-09-14T16:27:46.412Z,3.60
2022-09-14T16:30:13.593Z,3.30
2022-09-14T16:32:40.788Z,3.70
2022-09-14T16:35:08.522Z,3.50
2022-09-14T16:37:35.903Z,3.60
2022-09-14T16:40:59.912Z,3.23
2022-09-14T16:43:28.086Z,4.50
2022-09-14T16:46:22.003Z,4.17
2022-09-14T16:48:52.649Z,3.87
2022-09-14T16:51:23.946Z,4.27
2022-09-14T16:53:53.080Z,4.23
2022-09-14T16:56:27.705Z,4.20
2022-09-14T16:58:56.490Z,3.63
2022-09-14T17:01:28.885Z,3.77
2022-09-14T17:04:01.451Z,4.03
2022-09-14T17:06:32.172Z,3.90
2022-09-14T17:09:05.399Z,3.60
2022-09-14T17:11:35.438Z,3.40
2022-09-14T17:14:02.926Z,3.67
2022-09-14T17:16:32.823Z,3.50
2022-09-14T17:19:03.188Z,4.07
2022-09-14T17:21:35.291Z,3.83
2022-09-14T17:24:04.607Z,4.00
2022-09-14T17:26:33.030Z,3.87
2022-09-14T17:29:01.580Z,3.43
2022-09-14T17:31:36.960Z,3.63
2022-09-14T17:34:06.921Z,3.50
2022-09-14T17:36:34.652Z,3.40
2022-09-14T17:39:09.172Z,3.63
2022-09-14T17:41:39.284Z,3.53
2022-09-14T17:44:08.259Z,3.47
2022-09-14T17:46:39.730Z,3.03
2022-09-14T17:49:13.707Z,3.30
2022-09-14T17:51:41.464Z,3.17
2022-09-14T17:54:09.361Z,3.50
2022-09-14T17:56:37.496Z,3.43
2022-09-14T17:59:13.083Z,2.87
2022-09-14T18:01:41.209Z,3.33
2022-09-14T18:04:12.567Z,3.60
2022-09-14T18:06:46.568Z,4.10
2022-09-14T18:09:24.512Z,3.77
2022-09-14T18:11:54.706Z,3.90
2022-09-14T18:14:40.700Z,4.40
2022-09-14T18:17:07.905Z,3.70
2022-09-14T18:19:34.982Z,3.67
2022-09-14T18:22:02.302Z,4.10
2022-09-14T18:24:29.965Z,3.50
2022-09-14T18:26:58.034Z,3.03
2022-09-14T18:29:25.887Z,3.73
2022-09-14T18:31:54.569Z,3.23
2022-09-14T18:34:23.200Z,3.77
2022-09-14T18:36:52.204Z,3.60
2022-09-14T18:39:19.380Z,3.30
2022-09-14T18:42:05.603Z,3.43
2022-09-14T18:44:32.886Z,3.63
2022-09-14T18:47:00.556Z,4.07
2022-09-14T18:49:27.882Z,4.03
2022-09-14T18:51:55.019Z,4.17
2022-09-14T18:54:27.283Z,4.13
2022-09-14T18:56:54.859Z,4.20
2022-09-14T18:59:22.056Z,4.33
2022-09-14T19:01:50.240Z,4.00
2022-09-14T19:04:17.524Z,4.57
2022-09-14T19:06:44.815Z,4.30
2022-09-14T19:09:12.091Z,4.03
2022-09-14T19:11:39.386Z,4.60
2022-09-14T19:14:10.568Z,4.70
2022-09-14T19:16:42.004Z,4.70
2022-09-14T19:19:14.792Z,4.83
2022-09-14T19:21:42.364Z,4.70
2022-09-14T19:24:14.644Z,4.83
2022-09-14T19:26:46.544Z,4.33
2022-09-14T19:29:17.172Z,5.20
2022-09-14T19:31:44.834Z,4.83
2022-09-14T19:34:12.404Z,4.40
2022-09-14T19:36:39.996Z,3.90
2022-09-14T19:39:07.179Z,4.13
2022-09-14T19:41:35.299Z,4.50
2022-09-14T19:44:04.039Z,4.57
2022-09-14T19:46:34.048Z,5.07
2022-09-14T19:49:01.202Z,5.00
2022-09-14T19:51:30.971Z,6.20
2022-09-14T19:54:00.593Z,5.50
2022-09-14T19:56:31.163Z,6.03
2022-09-14T19:59:02.247Z,5.10
2022-09-14T20:01:32.076Z,5.20
2022-09-14T20:03:59.553Z,5.53
2022-09-14T20:06:36.868Z,6.87
2022-09-14T20:09:15.068Z,5.77
2022-09-14T20:11:44.678Z,5.87
2022-09-14T20:14:16.269Z,5.37
2022-09-14T20:16:50.729Z,5.27
2022-09-14T20:19:21.884Z,5.87
2022-09-14T20:21:52.098Z,5.40
2022-09-14T20:24:31.690Z,5.27
2022-09-14T20:27:03.035Z,5.47
2022-09-14T20:29:34.189Z,6.40
2022-09-14T20:32:04.290Z,5.73
2022-09-14T20:34:31.772Z,5.27
2022-09-14T20:37:01.727Z,5.83
2022-09-14T20:39:29.660Z,6.30
2022-09-14T20:41:56.750Z,6.33
2022-09-14T20:44:24.095Z,7.50
2022-09-14T20:46:52.083Z,8.63
2022-09-14T20:49:24.008Z,8.70
2022-09-14T20:51:52.855Z,11.37
2022-09-14T20:54:20.379Z,9.13
2022-09-14T20:56:47.663Z,9.97
2022-09-14T20:59:17.831Z,9.67
2022-09-14T21:01:47.852Z,9.63
2022-09-14T21:04:20.098Z,9.03
2022-09-14T21:06:52.691Z,10.07
2022-09-14T21:09:24.386Z,11.77
2022-09-14T21:11:52.537Z,11.10
2022-09-14T21:14:21.150Z,10.30
2022-09-14T21:16:53.357Z,10.87
2022-09-14T21:19:24.723Z,10.97
2022-09-14T21:21:52.203Z,11.27
2022-09-14T21:24:23.008Z,9.03
2022-09-14T21:26:50.395Z,11.03
2022-09-14T21:29:23.872Z,11.40
2022-09-14T21:31:52.002Z,12.83
2022-09-14T21:34:19.410Z,10.73
2022-09-14T21:36:49.754Z,12.23
2022-09-14T21:39:23.090Z,12.97
2022-09-14T21:41:58.017Z,14.10
2022-09-14T21:44:37.813Z,14.23
2022-09-14T21:47:05.734Z,18.27
2022-09-14T21:49:33.082Z,18.60
2022-09-14T21:52:00.427Z,22.50
2022-09-14T21:54:28.063Z,22.30
2022-09-14T21:56:55.484Z,20.70
2022-09-14T21:59:23.988Z,20.23
2022-09-14T22:01:51.495Z,23.63
2022-09-14T22:04:23.089Z,21.97
2022-09-14T22:06:54.262Z,20.53
2022-09-14T22:09:25.197Z,28.70
2022-09-14T22:11:53.482Z,25.83
2022-09-14T22:14:25.231Z,29.33
2022-09-14T22:16:52.721Z,34.23
2022-09-14T22:19:22.495Z,31.73
2022-09-14T22:21:51.094Z,29.07
2022-09-14T22:24:32.314Z,30.53
2022-09-14T22:27:02.691Z,27.97
2022-09-14T22:29:29.979Z,27.03
2022-09-14T22:31:57.270Z,26.77
2022-09-14T22:34:24.710Z,22.03
2022-09-14T22:36:51.915Z,21.07
2022-09-14T22:39:19.054Z,19.57
2022-09-14T22:41:46.196Z,19.47
2022-09-14T22:44:13.616Z,18.57
2022-09-14T22:46:41.041Z,15.10
2022-09-14T22:49:08.237Z,13.90
2022-09-14T22:51:35.309Z,13.90
2022-09-14T22:54:02.427Z,14.43
2022-09-14T22:56:35.514Z,13.00
2022-09-14T22:59:07.849Z,12.07
2022-09-14T23:01:40.924Z,10.90
2022-09-14T23:04:12.951Z,13.13
2022-09-14T23:06:44.412Z,11.70
2022-09-14T23:09:18.907Z,13.50
2022-09-14T23:11:49.518Z,10.87
2022-09-14T23:14:17.697Z,11.30
2022-09-14T23:16:45.739Z,11.90
2022-09-14T23:19:17.527Z,12.80
2022-09-14T23:21:45.708Z,10.90
2022-09-14T23:24:13.246Z,11.97
2022-09-14T23:26:43.322Z,11.93
2022-09-14T23:29:16.683Z,11.63
2022-09-14T23:31:44.585Z,10.37
2022-09-14T23:34:12.048Z,10.37
2022-09-14T23:36:39.134Z,10.73
2022-09-14T23:39:06.663Z,11.27
2022-09-14T23:41:33.951Z,11.60
2022-09-14T23:44:01.257Z,9.10
2022-09-14T23:46:28.508Z,11.13
2022-09-14T23:48:55.593Z,9.77
2022-09-14T23:51:23.550Z,10.70
2022-09-14T23:53:50.660Z,9.63
2022-09-14T23:56:18.126Z,10.40
2022-09-14T23:58:45.611Z,11.17
